Time;durP1;ratioP1;P1;durP2;ratioP2;P2;SDS_P1;SDS_P2;PMS_P1;PMS_P2;Temp;Humidity;BMP_temperature;BMP_pressure;BME280_temperature;BME280_humidity;BME280_pressure;Samples;Min_cycle;Max_cycle;Signal;HPM_P1;HPM_P2
2021/03/29 00:00:44;;;;;;;54.25;27.33;;;;;;;;;;5017235;28;20033;-61
2021/03/29 00:03:09;;;;;;;67.50;29.52;;;;;;;;;;5035016;28;20014;-62
2021/03/29 00:05:40;;;;;;;63.88;29.98;;;;;;;;;;5035076;28;20398;-61
2021/03/29 00:08:09;;;;;;;;;;;;;;;;;;5034439;28;20366;-62
2021/03/29 00:10:36;;;;;;;61.33;30.60;;;;;;;;;;5035319;28;19913;-62
2021/03/29 00:13:02;;;;;;;63.30;31.20;;;;;;;;;;5016968;28;20025;-62
2021/03/29 00:15:29;;;;;;;60.58;30.92;;;;;;;;;;5034896;28;20389;-61
2021/03/29 00:17:55;;;;;;;60.72;29.17;;;;;;;;;;5034906;28;20025;-62
2021/03/29 00:20:28;;;;;;;50.88;26.48;;;;;;;;;;5034873;28;20052;-62
2021/03/29 00:22:57;;;;;;;57.42;27.85;;;;;;;;;;5035124;28;20481;-62
2021/03/29 00:25:23;;;;;;;60.97;28.98;;;;;;;;;;5034846;28;20037;-61
2021/03/29 00:27:49;;;;;;;81.35;36.40;;;;;;;;;;5034848;28;20120;-62
2021/03/29 00:30:16;;;;;;;73.40;34.55;;;;;;;;;;5034501;28;20165;-62
2021/03/29 00:32:42;;;;;;;75.13;34.78;;;;;;;;;;5034603;28;20029;-62
2021/03/29 00:35:08;;;;;;;50.70;26.40;;;;;;;;;;5034649;28;20100;-62
2021/03/29 00:37:35;;;;;;;67.53;30.98;;;;;;;;;;5034609;28;20116;-62
2021/03/29 00:40:01;;;;;;;51.92;26.20;;;;;;;;;;5034449;28;20040;-62
2021/03/29 00:42:27;;;;;;;50.95;26.50;;;;;;;;;;5034304;28;20033;-62
2021/03/29 00:44:52;;;;;;;44.50;23.27;;;;;;;;;;5034484;28;20024;-62
2021/03/29 00:47:18;;;;;;;45.35;23.55;;;;;;;;;;5034412;28;20461;-62
2021/03/29 00:49:45;;;;;;;45.88;23.73;;;;;;;;;;5034177;28;20026;-62
2021/03/29 00:52:11;;;;;;;45.40;24.02;;;;;;;;;;5016561;28;20048;-62
2021/03/29 00:54:38;;;;;;;44.03;22.45;;;;;;;;;;5016319;28;20104;-62
2021/03/29 00:57:04;;;;;;;45.78;22.83;;;;;;;;;;5034059;28;20029;-62
2021/03/29 00:59:30;;;;;;;44.08;22.45;;;;;;;;;;5034264;28;20021;-61
2021/03/29 01:01:56;;;;;;;43.83;22.88;;;;;;;;;;5034056;28;20029;-61
2021/03/29 01:04:22;;;;;;;43.42;22.08;;;;;;;;;;5016189;28;20369;-61
2021/03/29 01:06:49;;;;;;;43.70;22.52;;;;;;;;;;5033493;28;20045;-61
2021/03/29 01:09:19;;;;;;;45.38;22.60;;;;;;;;;;5016321;28;20037;-61
2021/03/29 01:11:45;;;;;;;;;;;;;;;;;;5034592;28;20025;-61
2021/03/29 01:14:30;;;;;;;45.20;23.25;;;;;;;;;;5033909;28;20284;-61
2021/03/29 01:17:05;;;;;;;42.38;21.83;;;;;;;;;;5034206;28;20068;-61
2021/03/29 01:19:37;;;;;;;41.00;22.13;;;;;;;;;;5033718;28;20374;-61
2021/03/29 01:22:04;;;;;;;40.22;21.00;;;;;;;;;;5033957;28;20536;-61
2021/03/29 01:24:39;;;;;;;45.00;21.85;;;;;;;;;;5033957;28;20095;-61
2021/03/29 01:27:05;;;;;;;41.63;21.65;;;;;;;;;;5032416;28;20596;-61
2021/03/29 01:29:31;;;;;;;46.38;22.05;;;;;;;;;;5033445;28;20104;-62
2021/03/29 01:32:01;;;;;;;43.35;22.35;;;;;;;;;;5033864;28;20021;-62
2021/03/29 01:34:28;;;;;;;44.50;22.02;;;;;;;;;;5033692;28;20026;-61
2021/03/29 01:36:53;;;;;;;41.35;21.45;;;;;;;;;;5033636;28;20027;-61
2021/03/29 01:39:20;;;;;;;39.72;20.77;;;;;;;;;;5015389;28;20104;-61
2021/03/29 01:41:46;;;;;;;39.70;21.48;;;;;;;;;;5033516;28;20033;-61
2021/03/29 01:44:11;;;;;;;42.08;21.95;;;;;;;;;;5033949;28;20029;-61
2021/03/29 01:46:37;;;;;;;44.00;23.23;;;;;;;;;;5015672;28;20498;-61
2021/03/29 01:49:09;;;;;;;41.75;21.27;;;;;;;;;;5015545;28;20017;-62
2021/03/29 01:51:35;;;;;;;42.85;22.42;;;;;;;;;;5015914;28;20537;-62
2021/03/29 01:54:01;;;;;;;46.35;23.98;;;;;;;;;;5033660;28;20045;-62
2021/03/29 01:56:26;;;;;;;46.72;23.58;;;;;;;;;;5033433;28;20036;-62
2021/03/29 01:58:52;;;;;;;46.70;22.70;;;;;;;;;;5033471;28;20017;-62
2021/03/29 02:01:18;;;;;;;47.55;23.83;;;;;;;;;;5033374;28;20065;-62
2021/03/29 02:03:43;;;;;;;47.20;23.48;;;;;;;;;;5033421;28;20033;-62
2021/03/29 02:06:10;;;;;;;51.83;23.73;;;;;;;;;;5033104;28;20029;-61
2021/03/29 02:08:36;;;;;;;44.65;22.83;;;;;;;;;;5033035;28;20425;-61
2021/03/29 02:11:02;;;;;;;47.05;23.55;;;;;;;;;;5015321;28;20041;-61
2021/03/29 02:13:29;;;;;;;44.17;22.83;;;;;;;;;;5033474;28;20022;-62
2021/03/29 02:15:57;;;;;;;49.50;22.52;;;;;;;;;;5015811;28;20044;-62
2021/03/29 02:18:24;;;;;;;42.85;22.23;;;;;;;;;;5032966;28;20071;-61
2021/03/29 02:20:50;;;;;;;42.15;22.45;;;;;;;;;;5032089;28;20038;-61
2021/03/29 02:23:17;;;;;;;45.47;22.90;;;;;;;;;;5032920;28;20481;-61
2021/03/29 02:25:44;;;;;;;46.25;21.33;;;;;;;;;;5033109;28;20041;-61
2021/03/29 02:28:11;;;;;;;44.78;22.55;;;;;;;;;;5033536;28;20038;-61
2021/03/29 02:30:37;;;;;;;47.28;22.35;;;;;;;;;;5032920;28;20498;-61
2021/03/29 02:33:06;;;;;;;40.25;21.88;;;;;;;;;;5033230;28;20022;-62
2021/03/29 02:35:33;;;;;;;43.72;22.15;;;;;;;;;;5031911;28;20033;-61
2021/03/29 02:38:03;;;;;;;44.35;22.20;;;;;;;;;;5033005;28;20022;-61
2021/03/29 02:40:29;;;;;;;46.15;22.98;;;;;;;;;;5033041;28;20044;-61
2021/03/29 02:42:56;;;;;;;45.33;22.65;;;;;;;;;;5032986;28;20025;-61
2021/03/29 02:45:31;;;;;;;44.03;21.70;;;;;;;;;;5033187;28;20034;-61
2021/03/29 02:47:59;;;;;;;49.50;21.58;;;;;;;;;;5015178;28;20073;-61
2021/03/29 02:50:27;;;;;;;40.03;21.33;;;;;;;;;;5032816;28;20469;-61
2021/03/29 02:52:54;;;;;;;44.30;22.38;;;;;;;;;;5036005;28;20469;-61
2021/03/29 02:55:20;;;;;;;45.35;21.10;;;;;;;;;;5037050;28;20040;-62
2021/03/29 02:57:47;;;;;;;45.05;22.02;;;;;;;;;;5036421;28;20033;-62
2021/03/29 03:00:14;;;;;;;40.05;21.15;;;;;;;;;;5036346;28;20108;-62
2021/03/29 03:02:40;;;;;;;38.80;20.77;;;;;;;;;;5036551;28;20030;-62
2021/03/29 03:05:06;;;;;;;40.28;22.08;;;;;;;;;;5036605;28;20017;-61
2021/03/29 03:07:34;;;;;;;43.80;22.10;;;;;;;;;;5036350;28;20029;-62
2021/03/29 03:10:00;;;;;;;39.60;20.92;;;;;;;;;;5036245;28;20021;-62
2021/03/29 03:12:26;;;;;;;45.70;22.50;;;;;;;;;;5018777;28;20112;-62
2021/03/29 03:14:53;;;;;;;42.03;22.30;;;;;;;;;;5036322;28;20041;-62
2021/03/29 03:17:18;;;;;;;40.25;22.13;;;;;;;;;;5036325;28;20029;-62
2021/03/29 03:19:44;;;;;;;38.40;21.35;;;;;;;;;;5035917;28;20099;-62
2021/03/29 03:22:13;;;;;;;43.38;22.48;;;;;;;;;;5018771;28;20029;-61
2021/03/29 03:24:38;;;;;;;37.53;20.33;;;;;;;;;;5018305;28;20025;-61
2021/03/29 03:27:05;;;;;;;39.55;21.05;;;;;;;;;;5035884;28;20419;-61
2021/03/29 03:29:33;;;;;;;41.03;22.38;;;;;;;;;;5035716;28;20025;-61
2021/03/29 03:32:04;;;;;;;51.55;25.25;;;;;;;;;;5036048;28;20033;-61
2021/03/29 03:34:30;;;;;;;49.80;24.65;;;;;;;;;;5051204;28;20398;-62
2021/03/29 03:36:56;;;;;;;52.78;23.95;;;;;;;;;;5018089;28;20021;-61
2021/03/29 03:39:22;;;;;;;44.08;23.45;;;;;;;;;;5018232;28;20045;-61
2021/03/29 03:41:48;;;;;;;53.47;24.98;;;;;;;;;;5035731;28;20028;-61
2021/03/29 03:44:18;;;;;;;53.38;24.65;;;;;;;;;;5035681;28;20033;-61
2021/03/29 03:46:44;;;;;;;;;;;;;;;;;;5035955;28;20048;-62
2021/03/29 03:49:18;;;;;;;44.92;23.33;;;;;;;;;;5035871;28;19909;-61
2021/03/29 03:51:44;;;;;;;51.28;25.55;;;;;;;;;;5017908;28;20132;-61
2021/03/29 03:54:09;;;;;;;44.70;22.13;;;;;;;;;;5035420;28;20014;-61
2021/03/29 03:56:35;;;;;;;46.03;23.48;;;;;;;;;;5035368;28;20482;-61
2021/03/29 03:59:04;;;;;;;44.90;23.73;;;;;;;;;;5001408;28;20476;-62
2021/03/29 04:01:33;;;;;;;42.38;23.67;;;;;;;;;;5017460;28;20030;-62
2021/03/29 04:03:59;;;;;;;48.20;23.40;;;;;;;;;;5035434;28;20515;-62
2021/03/29 04:06:25;;;;;;;45.00;23.40;;;;;;;;;;5035642;28;20022;-62
2021/03/29 04:08:52;;;;;;;45.75;23.27;;;;;;;;;;5035565;28;20528;-61
2021/03/29 04:11:23;;;;;;;45.88;21.58;;;;;;;;;;5035303;28;20029;-61
2021/03/29 04:13:48;;;;;;;;;;;;;;;;;;5027826;28;20048;-61
2021/03/29 04:16:14;;;;;;;42.00;20.70;;;;;;;;;;5035338;28;20333;-62
2021/03/29 04:18:39;;;;;;;43.58;21.63;;;;;;;;;;5034969;28;20045;-62
2021/03/29 04:21:06;;;;;;;39.97;19.85;;;;;;;;;;5017469;28;20029;-62
2021/03/29 04:23:32;;;;;;;40.33;19.98;;;;;;;;;;5035124;28;20038;-63
2021/03/29 04:26:01;;;;;;;40.10;19.80;;;;;;;;;;5034631;28;20028;-63
2021/03/29 04:28:27;;;;;;;39.40;21.23;;;;;;;;;;5034344;28;20026;-63
2021/03/29 04:30:53;;;;;;;40.78;21.17;;;;;;;;;;5034457;28;20376;-63
2021/03/29 04:33:19;;;;;;;42.88;21.02;;;;;;;;;;5016757;28;20026;-63
2021/03/29 04:35:45;;;;;;;42.17;21.42;;;;;;;;;;5034291;28;20385;-63
2021/03/29 04:38:11;;;;;;;44.15;22.05;;;;;;;;;;5050013;28;20053;-63
2021/03/29 04:40:42;;;;;;;44.25;21.85;;;;;;;;;;5034469;28;20045;-63
2021/03/29 04:43:08;;;;;;;46.92;23.13;;;;;;;;;;5033961;28;20025;-63
2021/03/29 04:45:34;;;;;;;44.00;22.42;;;;;;;;;;5034456;28;20484;-63
2021/03/29 04:48:00;;;;;;;45.45;23.42;;;;;;;;;;5034871;28;20040;-63
2021/03/29 04:50:25;;;;;;;42.53;22.40;;;;;;;;;;5016593;28;20097;-63
2021/03/29 04:52:51;;;;;;;45.65;22.95;;;;;;;;;;5034881;28;20029;-63
2021/03/29 04:55:17;;;;;;;48.40;23.13;;;;;;;;;;5034790;28;20051;-63
2021/03/29 04:57:43;;;;;;;44.20;22.45;;;;;;;;;;5034494;28;20116;-63
2021/03/29 05:00:09;;;;;;;46.03;22.67;;;;;;;;;;5034156;28;20025;-63
2021/03/29 05:02:35;;;;;;;44.58;22.75;;;;;;;;;;5034260;28;20105;-63
2021/03/29 05:05:01;;;;;;;45.00;21.75;;;;;;;;;;5034225;28;20055;-63
2021/03/29 05:07:26;;;;;;;43.38;22.05;;;;;;;;;;5034422;28;20033;-63
2021/03/29 05:09:52;;;;;;;47.90;21.80;;;;;;;;;;5033800;28;20017;-63
2021/03/29 05:12:24;;;;;;;47.78;22.13;;;;;;;;;;5016268;28;20072;-63
2021/03/29 05:14:52;;;;;;;57.88;28.20;;;;;;;;;;5048727;28;20048;-63
2021/03/29 05:17:18;;;;;;;50.20;26.98;;;;;;;;;;5016092;28;20017;-63
2021/03/29 05:19:44;;;;;;;49.78;23.35;;;;;;;;;;5033724;28;20543;-63
2021/03/29 05:22:09;;;;;;;43.33;21.65;;;;;;;;;;5033744;28;20030;-63
2021/03/29 05:24:36;;;;;;;42.53;19.98;;;;;;;;;;5031905;28;20088;-63
2021/03/29 05:27:01;;;;;;;40.88;19.65;;;;;;;;;;5015512;28;20512;-63
2021/03/29 05:29:28;;;;;;;40.75;21.00;;;;;;;;;;5015298;28;20470;-62
2021/03/29 05:31:54;;;;;;;46.88;24.65;;;;;;;;;;5015487;28;20053;-63
2021/03/29 05:34:20;;;;;;;47.80;23.25;;;;;;;;;;5032736;28;20108;-64
2021/03/29 05:36:46;;;;;;;45.40;21.45;;;;;;;;;;5031600;28;20163;-64
2021/03/29 05:39:11;;;;;;;37.33;19.60;;;;;;;;;;5033449;28;20045;-64
2021/03/29 05:41:38;;;;;;;39.15;19.25;;;;;;;;;;5033619;28;20413;-64
2021/03/29 05:44:03;;;;;;;40.38;20.05;;;;;;;;;;5032197;28;20079;-64
2021/03/29 05:46:29;;;;;;;42.70;20.05;;;;;;;;;;5032728;28;20021;-64
2021/03/29 05:48:55;;;;;;;50.33;22.77;;;;;;;;;;5031892;28;20053;-64
2021/03/29 05:51:20;;;;;;;52.95;23.27;;;;;;;;;;5031642;28;20094;-64
2021/03/29 05:53:46;;;;;;;55.40;24.35;;;;;;;;;;5032196;28;20025;-64
2021/03/29 05:56:13;;;;;;;77.40;32.13;;;;;;;;;;5032867;28;20029;-64
2021/03/29 06:01:07;;;;;;;55.85;25.42;;;;;;;;;;5031935;28;20100;-64
2021/03/29 06:03:35;;;;;;;157.25;93.50;;;;;;;;;;5032054;28;20049;-64
2021/03/29 06:06:01;;;;;;;202.85;106.82;;;;;;;;;;5015080;28;20072;-64
2021/03/29 06:08:27;;;;;;;534.40;358.70;;;;;;;;;;5033131;28;20465;-64
2021/03/29 06:10:54;;;;;;;182.23;121.07;;;;;;;;;;5033015;28;20104;-64
2021/03/29 06:13:27;;;;;;;64.40;38.70;;;;;;;;;;5033088;28;20035;-64
2021/03/29 06:16:00;;;;;;;54.28;31.27;;;;;;;;;;5032969;28;20057;-65
2021/03/29 06:18:26;;;;;;;97.55;60.53;;;;;;;;;;5032525;28;20132;-65
2021/03/29 06:20:57;;;;;;;47.15;24.90;;;;;;;;;;5015292;28;20132;-64
2021/03/29 06:23:23;;;;;;;109.32;63.28;;;;;;;;;;5032951;28;20037;-64
2021/03/29 06:26:07;;;;;;;46.63;27.20;;;;;;;;;;5035322;28;20036;-64
2021/03/29 06:28:32;;;;;;;41.65;22.50;;;;;;;;;;5052202;28;20443;-64
2021/03/29 06:31:16;;;;;;;42.13;21.98;;;;;;;;;;5036600;28;20026;-64
2021/03/29 06:33:49;;;;;;;45.33;21.38;;;;;;;;;;5052283;28;20060;-64
2021/03/29 06:36:28;;;;;;;38.45;19.83;;;;;;;;;;5036808;28;20416;-64
2021/03/29 06:38:54;;;;;;;37.90;20.33;;;;;;;;;;5036739;28;20038;-64
2021/03/29 06:41:24;;;;;;;37.22;19.48;;;;;;;;;;5036662;28;20033;-64
2021/03/29 06:43:51;;;;;;;36.45;19.55;;;;;;;;;;5036525;28;20048;-64
2021/03/29 06:46:21;;;;;;;38.00;19.55;;;;;;;;;;5036585;28;20025;-64
2021/03/29 06:48:47;;;;;;;;;;;;;;;;;;5036891;28;20034;-64
2021/03/29 06:51:18;;;;;;;36.47;19.20;;;;;;;;;;5018921;28;19915;-64
2021/03/29 06:53:51;;;;;;;34.97;19.42;;;;;;;;;;5035077;28;20049;-64
2021/03/29 06:56:20;;;;;;;32.42;17.40;;;;;;;;;;5036488;28;20112;-64
2021/03/29 06:58:46;;;;;;;37.60;19.73;;;;;;;;;;5036347;28;20036;-64
2021/03/29 07:01:16;;;;;;;41.33;23.17;;;;;;;;;;5036305;28;20029;-64
2021/03/29 07:03:42;;;;;;;45.00;24.48;;;;;;;;;;5036370;28;20215;-64
2021/03/29 07:06:08;;;;;;;38.03;20.25;;;;;;;;;;5036035;28;20080;-64
2021/03/29 07:08:34;;;;;;;41.45;19.67;;;;;;;;;;5036102;28;20025;-65
2021/03/29 07:11:00;;;;;;;35.83;19.10;;;;;;;;;;5018287;28;20433;-64
2021/03/29 07:13:26;;;;;;;45.13;21.83;;;;;;;;;;5035961;28;20052;-64
2021/03/29 07:15:52;;;;;;;38.13;20.92;;;;;;;;;;5036125;28;20049;-64
2021/03/29 07:18:18;;;;;;;41.28;23.27;;;;;;;;;;5033514;28;20506;-64
2021/03/29 07:20:45;;;;;;;47.25;24.55;;;;;;;;;;5036061;28;20034;-64
2021/03/29 07:23:11;;;;;;;46.15;23.70;;;;;;;;;;5035624;28;20021;-64
2021/03/29 07:25:36;;;;;;;28.88;17.23;;;;;;;;;;5051290;28;20043;-64
2021/03/29 07:28:08;;;;;;;21.80;12.88;;;;;;;;;;5035754;28;20021;-64
2021/03/29 07:30:47;;;;;;;19.45;11.23;;;;;;;;;;5017784;28;20057;-65
2021/03/29 07:33:14;;;;;;;26.05;13.60;;;;;;;;;;5035543;28;20021;-65
2021/03/29 07:35:52;;;;;;;25.77;14.18;;;;;;;;;;5035655;28;20018;-65
2021/03/29 07:38:19;;;;;;;29.17;15.82;;;;;;;;;;5017068;28;20113;-64
2021/03/29 07:40:51;;;;;;;28.00;14.75;;;;;;;;;;5035294;28;20021;-64
2021/03/29 07:43:17;;;;;;;33.15;16.15;;;;;;;;;;5035004;28;20152;-65
2021/03/29 07:45:44;;;;;;;28.70;14.60;;;;;;;;;;5018266;28;20121;-64
2021/03/29 07:48:13;;;;;;;26.52;15.00;;;;;;;;;;5035680;28;20036;-65
2021/03/29 07:50:38;;;;;;;25.40;13.73;;;;;;;;;;5035696;28;20017;-65
2021/03/29 07:53:17;;;;;;;27.25;13.82;;;;;;;;;;5035108;28;20025;-64
2021/03/29 07:55:51;;;;;;;25.05;13.43;;;;;;;;;;5050918;28;20057;-65
2021/03/29 07:58:19;;;;;;;22.00;11.70;;;;;;;;;;5035252;28;20049;-64
2021/03/29 08:00:45;;;;;;;22.48;12.57;;;;;;;;;;5017478;28;20017;-65
2021/03/29 08:03:11;;;;;;;24.38;13.43;;;;;;;;;;5035195;28;20033;-64
2021/03/29 08:05:43;;;;;;;25.13;13.07;;;;;;;;;;5035070;28;20044;-65
2021/03/29 08:08:28;;;;;;;22.35;12.98;;;;;;;;;;5033076;28;20144;-64
2021/03/29 08:11:00;;;;;;;24.25;13.60;;;;;;;;;;5034565;28;20069;-64
2021/03/29 08:13:42;;;;;;;22.60;10.73;;;;;;;;;;5035063;28;20033;-64
2021/03/29 08:16:15;;;;;;;25.60;14.02;;;;;;;;;;5034980;28;20036;-64
2021/03/29 08:18:59;;;;;;;22.38;11.98;;;;;;;;;;5034539;28;20052;-64
2021/03/29 08:21:40;;;;;;;21.90;11.85;;;;;;;;;;5050422;28;20041;-64
2021/03/29 08:24:06;;;;;;;;;;;;;;;;;;5035060;28;20033;-64
2021/03/29 08:26:38;;;;;;;18.70;10.88;;;;;;;;;;5034779;28;19959;-64
2021/03/29 08:29:07;;;;;;;24.45;12.60;;;;;;;;;;5016959;28;20428;-64
2021/03/29 08:31:51;;;;;;;16.85;9.52;;;;;;;;;;5034398;28;20496;-64
2021/03/29 08:34:20;;;;;;;21.67;10.65;;;;;;;;;;5034489;28;20029;-64
2021/03/29 08:36:45;;;;;;;19.77;9.60;;;;;;;;;;5034415;28;20389;-64
2021/03/29 08:39:11;;;;;;;19.05;11.02;;;;;;;;;;5034422;28;20132;-64
2021/03/29 08:41:37;;;;;;;19.90;12.13;;;;;;;;;;5034438;28;20111;-64
2021/03/29 08:44:03;;;;;;;14.30;8.30;;;;;;;;;;5034265;28;20032;-64
2021/03/29 08:46:31;;;;;;;17.70;10.05;;;;;;;;;;5033650;28;20018;-64
2021/03/29 08:48:57;;;;;;;13.55;7.75;;;;;;;;;;5033163;28;20044;-64
2021/03/29 08:51:23;;;;;;;15.68;8.65;;;;;;;;;;5034099;28;20108;-63
2021/03/29 08:54:07;;;;;;;14.50;8.88;;;;;;;;;;5034005;28;20201;-64
2021/03/29 08:56:40;;;;;;;18.27;9.63;;;;;;;;;;5034101;28;20033;-64
2021/03/29 08:59:06;;;;;;;15.93;8.48;;;;;;;;;;5034019;28;20030;-64
2021/03/29 09:01:31;;;;;;;17.30;9.32;;;;;;;;;;5034082;28;20044;-64
2021/03/29 09:04:00;;;;;;;14.73;8.60;;;;;;;;;;5033962;28;20087;-64
2021/03/29 09:06:26;;;;;;;15.88;9.10;;;;;;;;;;5033984;28;20025;-63
2021/03/29 09:08:53;;;;;;;18.05;9.35;;;;;;;;;;5033970;28;20112;-63
2021/03/29 09:11:18;;;;;;;17.38;9.93;;;;;;;;;;5016128;28;20108;-64
2021/03/29 09:13:45;;;;;;;20.92;10.77;;;;;;;;;;5034058;28;20049;-64
2021/03/29 09:16:10;;;;;;;24.75;11.65;;;;;;;;;;5033711;28;20021;-63
2021/03/29 09:18:36;;;;;;;17.80;9.23;;;;;;;;;;5032226;28;20113;-65
2021/03/29 09:21:01;;;;;;;14.65;8.15;;;;;;;;;;5030989;28;20037;-64
2021/03/29 09:23:32;;;;;;;15.02;8.23;;;;;;;;;;5032133;28;20017;-63
2021/03/29 09:26:00;;;;;;;12.40;7.78;;;;;;;;;;5016182;28;20033;-63
2021/03/29 09:31:02;;;;;;;12.13;6.78;;;;;;;;;;5032222;28;20083;-63
2021/03/29 09:33:27;;;;;;;;;;;;;;;;;;5033513;28;20475;-63
2021/03/29 09:35:54;;;;;;;14.98;8.02;;;;;;;;;;5033325;28;19909;-63
2021/03/29 09:38:34;;;;;;;13.77;7.72;;;;;;;;;;5032590;28;20072;-63
2021/03/29 09:41:00;;;;;;;14.67;7.43;;;;;;;;;;5031510;28;20033;-63
2021/03/29 09:43:25;;;;;;;16.40;8.25;;;;;;;;;;5015586;28;20025;-63
2021/03/29 09:46:02;;;;;;;14.85;7.95;;;;;;;;;;5032748;28;20136;-63
2021/03/29 09:48:30;;;;;;;14.77;8.23;;;;;;;;;;5028459;28;20030;-63
2021/03/29 09:50:55;;;;;;;17.20;9.38;;;;;;;;;;5031537;28;20071;-63
2021/03/29 09:53:25;;;;;;;14.10;8.05;;;;;;;;;;5032054;28;20408;-63
2021/03/29 09:55:51;;;;;;;16.20;8.80;;;;;;;;;;5025206;28;20018;-63
2021/03/29 09:58:17;;;;;;;12.20;6.63;;;;;;;;;;5031661;28;20056;-63
2021/03/29 10:00:43;;;;;;;15.13;7.70;;;;;;;;;;5031978;28;20033;-63
2021/03/29 10:03:08;;;;;;;14.68;7.60;;;;;;;;;;5033160;28;20159;-64
2021/03/29 10:05:35;;;;;;;16.98;8.82;;;;;;;;;;5032735;28;20481;-64
2021/03/29 10:08:00;;;;;;;16.88;8.85;;;;;;;;;;5032217;28;20017;-64
2021/03/29 10:10:30;;;;;;;16.90;8.38;;;;;;;;;;5048102;28;20041;-64
2021/03/29 10:13:08;;;;;;;15.50;8.20;;;;;;;;;;5014720;28;20536;-64
2021/03/29 10:15:34;;;;;;;14.65;8.10;;;;;;;;;;5031113;28;20412;-64
2021/03/29 10:18:07;;;;;;;9.43;6.05;;;;;;;;;;5032910;28;20013;-64
2021/03/29 10:20:35;;;;;;;16.23;7.15;;;;;;;;;;5032776;28;20140;-64
2021/03/29 10:23:18;;;;;;;12.15;6.55;;;;;;;;;;5033031;28;20485;-64
2021/03/29 10:25:45;;;;;;;17.55;8.73;;;;;;;;;;5032983;28;20040;-62
2021/03/29 10:28:17;;;;;;;13.35;7.60;;;;;;;;;;5032975;28;20401;-62
2021/03/29 10:30:43;;;;;;;10.45;5.95;;;;;;;;;;5032933;28;20037;-61
2021/03/29 10:33:08;;;;;;;11.57;6.80;;;;;;;;;;5032974;28;20473;-62
2021/03/29 10:35:34;;;;;;;10.65;6.80;;;;;;;;;;5015070;28;20033;-62
2021/03/29 10:38:02;;;;;;;11.25;6.43;;;;;;;;;;5032919;28;20109;-62
2021/03/29 10:40:28;;;;;;;10.23;5.43;;;;;;;;;;5032798;28;20099;-61
2021/03/29 10:42:54;;;;;;;9.98;5.20;;;;;;;;;;5032839;28;20052;-61
2021/03/29 10:45:20;;;;;;;9.18;4.93;;;;;;;;;;5014663;28;20428;-62
2021/03/29 10:47:46;;;;;;;11.82;5.93;;;;;;;;;;5032708;28;20022;-62
2021/03/29 10:50:13;;;;;;;15.60;6.20;;;;;;;;;;5015311;28;20040;-62
2021/03/29 10:52:38;;;;;;;9.98;6.13;;;;;;;;;;5033037;28;20010;-61
2021/03/29 10:55:05;;;;;;;10.73;5.70;;;;;;;;;;5032838;28;20028;-62
2021/03/29 10:57:31;;;;;;;11.15;5.40;;;;;;;;;;5032889;28;20435;-61
2021/03/29 10:59:57;;;;;;;11.55;6.20;;;;;;;;;;5032533;28;20120;-61
2021/03/29 11:02:23;;;;;;;11.82;6.30;;;;;;;;;;5032713;28;20068;-61
2021/03/29 11:04:49;;;;;;;12.60;5.82;;;;;;;;;;5032752;28;20033;-61
2021/03/29 11:07:15;;;;;;;12.27;5.85;;;;;;;;;;5032727;28;20020;-61
2021/03/29 11:09:41;;;;;;;8.07;4.70;;;;;;;;;;5032937;28;20413;-61
2021/03/29 11:12:07;;;;;;;10.10;4.15;;;;;;;;;;5033711;28;20461;-61
2021/03/29 11:14:32;;;;;;;8.18;4.38;;;;;;;;;;5036550;28;20072;-61
2021/03/29 11:16:59;;;;;;;11.25;4.57;;;;;;;;;;5036172;28;20476;-62
2021/03/29 11:19:25;;;;;;;10.77;5.57;;;;;;;;;;5035319;28;20164;-62
2021/03/29 11:21:52;;;;;;;7.70;4.55;;;;;;;;;;5036134;28;20108;-62
2021/03/29 11:24:18;;;;;;;8.95;4.88;;;;;;;;;;5035927;28;20488;-62
2021/03/29 11:26:43;;;;;;;12.27;5.10;;;;;;;;;;5036078;28;20041;-62
2021/03/29 11:29:09;;;;;;;11.65;4.80;;;;;;;;;;5036412;28;20124;-62
2021/03/29 11:31:39;;;;;;;7.15;4.70;;;;;;;;;;5001562;28;20095;-62
2021/03/29 11:34:05;;;;;;;10.13;4.40;;;;;;;;;;5035905;28;20369;-62
2021/03/29 11:36:30;;;;;;;7.35;3.88;;;;;;;;;;5035972;28;20105;-62
2021/03/29 11:38:56;;;;;;;8.43;4.43;;;;;;;;;;5036000;28;20025;-62
2021/03/29 11:41:24;;;;;;;7.20;4.35;;;;;;;;;;5035898;28;20013;-62
2021/03/29 11:43:50;;;;;;;7.47;4.40;;;;;;;;;;5035674;28;20041;-61
2021/03/29 11:46:16;;;;;;;11.65;5.35;;;;;;;;;;5035807;28;20021;-62
2021/03/29 11:48:41;;;;;;;8.73;4.32;;;;;;;;;;5035738;28;20623;-62
2021/03/29 11:51:07;;;;;;;8.50;5.00;;;;;;;;;;5035414;28;20029;-62
2021/03/29 11:53:35;;;;;;;11.18;5.10;;;;;;;;;;5017307;28;20485;-62
2021/03/29 11:56:01;;;;;;;11.68;4.60;;;;;;;;;;5018409;28;20430;-62
2021/03/29 11:58:27;;;;;;;8.88;4.97;;;;;;;;;;5035460;28;20523;-61
2021/03/29 12:00:56;;;;;;;8.75;4.85;;;;;;;;;;5017858;28;20037;-62
2021/03/29 12:05:56;;;;;;;9.98;5.03;;;;;;;;;;5017649;28;20034;-62
2021/03/29 12:13:41;;;;;;;11.32;5.43;;;;;;;;;;5035511;28;20030;-62
2021/03/29 12:16:07;;;;;;;10.88;5.43;;;;;;;;;;5017534;28;20030;-62
2021/03/29 12:18:36;;;;;;;12.95;5.05;;;;;;;;;;5017213;28;20037;-62
2021/03/29 12:21:03;;;;;;;10.63;5.72;;;;;;;;;;5035360;28;20060;-62
2021/03/29 12:23:29;;;;;;;11.68;5.40;;;;;;;;;;5035242;28;20033;-62
2021/03/29 12:25:55;;;;;;;13.02;5.35;;;;;;;;;;5034497;28;20059;-62
2021/03/29 12:28:21;;;;;;;10.57;5.68;;;;;;;;;;5034607;28;20032;-62
2021/03/29 12:30:47;;;;;;;10.43;5.30;;;;;;;;;;5034453;28;20057;-62
2021/03/29 12:33:13;;;;;;;16.17;6.43;;;;;;;;;;5034465;28;20397;-61
2021/03/29 12:35:45;;;;;;;15.05;6.13;;;;;;;;;;5034398;28;20030;-61
2021/03/29 12:38:12;;;;;;;13.25;5.55;;;;;;;;;;5034506;28;20026;-61
2021/03/29 12:40:40;;;;;;;11.93;5.53;;;;;;;;;;5034342;28;20470;-62
2021/03/29 12:43:09;;;;;;;12.07;5.93;;;;;;;;;;5034450;28;20477;-62
2021/03/29 12:45:35;;;;;;;11.55;5.32;;;;;;;;;;5034469;28;20013;-62
2021/03/29 12:48:08;;;;;;;11.18;5.13;;;;;;;;;;5034356;28;20080;-62
2021/03/29 12:50:39;;;;;;;10.80;5.28;;;;;;;;;;5034154;28;20473;-62
2021/03/29 12:53:05;;;;;;;11.05;5.05;;;;;;;;;;5034167;28;20018;-62
2021/03/29 12:55:31;;;;;;;12.25;6.05;;;;;;;;;;5034184;28;20024;-62
2021/03/29 12:57:57;;;;;;;12.60;5.38;;;;;;;;;;5034098;28;20366;-62
2021/03/29 13:00:27;;;;;;;12.80;5.68;;;;;;;;;;5034039;28;20044;-62
2021/03/29 13:02:54;;;;;;;9.88;5.10;;;;;;;;;;5033951;28;20034;-62
2021/03/29 13:05:36;;;;;;;11.30;5.15;;;;;;;;;;5033951;28;20071;-62
2021/03/29 13:08:06;;;;;;;11.95;6.03;;;;;;;;;;5033986;28;20033;-62
2021/03/29 13:13:17;;;;;;;11.32;4.90;;;;;;;;;;5033795;28;19958;-62
2021/03/29 13:15:42;;;;;;;9.13;4.05;;;;;;;;;;5033616;28;20035;-63
2021/03/29 13:18:09;;;;;;;9.10;5.53;;;;;;;;;;5033947;28;20116;-62
2021/03/29 13:20:40;;;;;;;10.18;5.97;;;;;;;;;;5033572;28;20056;-62
2021/03/29 13:23:06;;;;;;;13.70;6.25;;;;;;;;;;5033685;28;20029;-62
2021/03/29 13:25:32;;;;;;;9.30;5.25;;;;;;;;;;5033603;28;20392;-62
2021/03/29 13:27:58;;;;;;;9.55;5.40;;;;;;;;;;5033603;28;20052;-62
2021/03/29 13:30:24;;;;;;;13.77;5.65;;;;;;;;;;5033383;28;20071;-62
2021/03/29 13:32:51;;;;;;;13.02;6.53;;;;;;;;;;5033538;28;20091;-62
2021/03/29 13:35:16;;;;;;;12.93;7.72;;;;;;;;;;5032918;28;20013;-62
2021/03/29 13:37:42;;;;;;;15.15;7.97;;;;;;;;;;5033493;28;20391;-62
2021/03/29 13:40:08;;;;;;;11.70;7.30;;;;;;;;;;5033447;28;20067;-62
2021/03/29 13:42:34;;;;;;;12.90;8.23;;;;;;;;;;5033092;28;20033;-62
2021/03/29 13:45:00;;;;;;;14.00;7.32;;;;;;;;;;5015951;28;20427;-62
2021/03/29 13:47:28;;;;;;;15.98;8.60;;;;;;;;;;5033319;28;20030;-62
2021/03/29 13:49:57;;;;;;;17.58;8.98;;;;;;;;;;5032874;28;20021;-62
2021/03/29 13:52:23;;;;;;;14.18;7.88;;;;;;;;;;5033312;28;20033;-62
2021/03/29 13:54:48;;;;;;;16.83;7.30;;;;;;;;;;5033545;28;20021;-61
2021/03/29 13:57:14;;;;;;;12.43;6.93;;;;;;;;;;5033332;28;20040;-61
2021/03/29 13:59:40;;;;;;;10.13;6.07;;;;;;;;;;5033481;28;20018;-62
2021/03/29 14:02:08;;;;;;;13.68;6.95;;;;;;;;;;5032402;28;20030;-61
2021/03/29 14:04:34;;;;;;;11.88;6.40;;;;;;;;;;5014817;28;20022;-62
2021/03/29 14:07:00;;;;;;;14.23;6.97;;;;;;;;;;5033003;28;20032;-61
2021/03/29 14:09:26;;;;;;;18.25;8.32;;;;;;;;;;5033000;28;20043;-62
2021/03/29 14:11:55;;;;;;;20.25;9.50;;;;;;;;;;5015180;28;20033;-62
2021/03/29 14:14:24;;;;;;;14.55;8.60;;;;;;;;;;5033327;28;20050;-61
2021/03/29 14:16:51;;;;;;;17.45;9.05;;;;;;;;;;5032875;28;20025;-62
2021/03/29 14:19:21;;;;;;;16.85;8.93;;;;;;;;;;5032407;28;20060;-62
2021/03/29 14:21:48;;;;;;;11.23;8.40;;;;;;;;;;5032954;28;20116;-61
2021/03/29 14:24:14;;;;;;;13.25;8.93;;;;;;;;;;5032833;28;20121;-62
2021/03/29 14:26:40;;;;;;;14.93;8.77;;;;;;;;;;5032849;28;20060;-61
2021/03/29 14:29:06;;;;;;;27.00;13.25;;;;;;;;;;5032992;28;20060;-62
2021/03/29 14:31:32;;;;;;;77.53;34.00;;;;;;;;;;5032654;28;20408;-62
2021/03/29 14:33:58;;;;;;;65.10;33.72;;;;;;;;;;5015088;28;20097;-62
2021/03/29 14:39:10;;;;;;;26.98;11.85;;;;;;;;;;5015068;28;20072;-62
2021/03/29 14:46:49;;;;;;;18.35;8.85;;;;;;;;;;5034714;28;20087;-62
2021/03/29 14:49:14;;;;;;;14.07;8.15;;;;;;;;;;5036275;28;20013;-62
2021/03/29 14:51:40;;;;;;;13.85;7.20;;;;;;;;;;5036576;28;20493;-61